createdAt,value
2023-02-12T00:01:40.712Z,70.29
2023-02-12T00:04:09.113Z,70.38
2023-02-12T00:06:39.282Z,70.62
2023-02-12T00:09:07.919Z,70.90
2023-02-12T00:11:36.364Z,71.14
2023-02-12T00:14:05.724Z,71.67
2023-02-12T00:16:34.156Z,72.08
2023-02-12T00:19:02.606Z,71.67
2023-02-12T00:21:31.070Z,71.08
2023-02-12T00:23:59.412Z,71.78
2023-02-12T00:26:28.500Z,72.55
2023-02-12T00:28:57.102Z,71.38
2023-02-12T00:31:29.455Z,71.55
2023-02-12T00:33:59.424Z,73.07
2023-02-12T00:36:29.488Z,76.02
2023-02-12T00:38:58.194Z,77.25
2023-02-12T00:41:30.248Z,79.23
2023-02-12T00:43:58.811Z,76.00
2023-02-12T00:46:27.888Z,76.55
2023-02-12T00:48:56.399Z,79.62
2023-02-12T00:51:24.899Z,80.11
2023-02-12T00:53:53.127Z,78.75
2023-02-12T00:56:21.512Z,80.61
2023-02-12T00:58:51.093Z,81.34
2023-02-12T01:01:22.702Z,80.09
2023-02-12T01:03:51.279Z,79.11
2023-02-12T01:06:21.230Z,79.12
2023-02-12T01:08:53.439Z,79.85
2023-02-12T01:11:22.054Z,78.81
2023-02-12T01:13:50.741Z,79.87
2023-02-12T01:16:22.186Z,79.62
2023-02-12T01:18:55.810Z,79.25
2023-02-12T01:21:28.129Z,78.99
2023-02-12T01:23:57.726Z,80.27
2023-02-12T01:26:27.414Z,80.15
2023-02-12T01:29:01.412Z,81.31
2023-02-12T01:31:33.352Z,82.88
2023-02-12T01:34:05.979Z,82.74
2023-02-12T01:36:37.536Z,80.54
2023-02-12T01:39:11.944Z,82.49
2023-02-12T01:41:45.372Z,82.67
2023-02-12T01:44:36.957Z,83.53
2023-02-12T01:47:06.557Z,82.74
2023-02-12T01:49:40.707Z,81.22
2023-02-12T01:52:27.552Z,79.49
2023-02-12T01:55:00.613Z,80.78
2023-02-12T01:57:32.514Z,80.44
2023-02-12T02:00:03.784Z,80.32
2023-02-12T02:02:47.628Z,82.33
2023-02-12T02:05:24.087Z,80.76
2023-02-12T02:07:53.900Z,80.52
2023-02-12T02:10:22.447Z,81.02
2023-02-12T02:13:09.542Z,80.18
2023-02-12T02:15:42.145Z,81.92
2023-02-12T02:18:27.297Z,82.77
2023-02-12T02:21:40.639Z,80.71
2023-02-12T02:24:46.114Z,82.98
2023-02-12T02:27:33.727Z,83.39
2023-02-12T02:30:35.873Z,83.53
2023-02-12T02:33:33.490Z,82.63
2023-02-12T02:36:10.760Z,83.22
2023-02-12T02:38:55.933Z,84.35
2023-02-12T02:41:47.779Z,84.10
2023-02-12T02:44:26.917Z,85.23
2023-02-12T02:47:00.679Z,85.81
2023-02-12T02:49:38.375Z,85.86
2023-02-12T02:52:20.906Z,85.60
2023-02-12T02:54:54.880Z,85.57
2023-02-12T02:57:23.128Z,85.60
2023-02-12T02:59:58.474Z,85.79
2023-02-12T03:02:35.964Z,84.05
2023-02-12T03:05:17.835Z,83.16
2023-02-12T03:07:53.919Z,83.24
2023-02-12T03:10:32.767Z,84.28
2023-02-12T03:13:11.353Z,84.16
2023-02-12T03:15:44.631Z,84.22
2023-02-12T03:18:36.566Z,84.18
2023-02-12T03:21:11.598Z,84.80
2023-02-12T03:23:48.330Z,84.31
2023-02-12T03:26:22.436Z,83.70
2023-02-12T03:28:53.212Z,83.78
2023-02-12T03:31:30.660Z,83.07
2023-02-12T03:34:25.092Z,81.19
2023-02-12T03:37:02.495Z,81.98
2023-02-12T03:39:35.485Z,83.11
2023-02-12T03:42:19.102Z,82.80
2023-02-12T03:44:49.520Z,82.36
2023-02-12T03:47:20.903Z,83.61
2023-02-12T03:50:01.523Z,81.37
2023-02-12T03:52:31.084Z,81.36
2023-02-12T03:54:59.527Z,83.44
2023-02-12T03:57:34.216Z,82.73
2023-02-12T04:00:07.501Z,81.85
2023-02-12T04:02:43.641Z,82.70
2023-02-12T04:05:22.132Z,83.61
2023-02-12T04:07:52.640Z,82.91
2023-02-12T04:10:30.252Z,83.03
2023-02-12T04:13:19.655Z,83.33
2023-02-12T04:16:11.965Z,82.57
2023-02-12T04:18:46.826Z,83.57
2023-02-12T04:21:21.329Z,82.36
2023-02-12T04:24:35.702Z,83.03
2023-02-12T04:27:19.198Z,83.72
2023-02-12T04:29:50.160Z,83.58
2023-02-12T04:32:25.109Z,83.35
2023-02-12T04:35:04.510Z,83.79
2023-02-12T04:37:43.778Z,84.05
2023-02-12T04:40:18.290Z,83.38
2023-02-12T04:42:49.729Z,82.82
2023-02-12T04:45:26.690Z,82.12
2023-02-12T04:47:55.851Z,81.68
2023-02-12T04:50:24.317Z,81.30
2023-02-12T04:52:55.988Z,80.81
2023-02-12T04:55:24.196Z,80.58
2023-02-12T04:57:52.304Z,80.63
2023-02-12T05:00:20.964Z,80.34
2023-02-12T05:02:49.088Z,80.71
2023-02-12T05:05:18.571Z,80.48
2023-02-12T05:07:50.055Z,80.55
2023-02-12T05:10:18.277Z,80.41
2023-02-12T05:12:46.879Z,81.02
2023-02-12T05:15:15.297Z,81.17
2023-02-12T05:17:44.988Z,81.03
2023-02-12T05:20:14.088Z,80.06
2023-02-12T05:22:42.297Z,80.71
2023-02-12T05:25:10.483Z,81.11
2023-02-12T05:27:38.977Z,80.84
2023-02-12T05:30:09.588Z,80.88
2023-02-12T05:32:37.999Z,81.68
2023-02-12T05:35:07.036Z,81.42
2023-02-12T05:37:37.041Z,81.23
2023-02-12T05:40:09.266Z,81.60
2023-02-12T05:42:37.804Z,81.63
2023-02-12T05:45:06.820Z,81.30
2023-02-12T05:47:38.580Z,81.33
2023-02-12T05:50:07.603Z,80.89
2023-02-12T05:52:38.083Z,81.13
2023-02-12T05:55:07.126Z,81.10
2023-02-12T05:57:35.452Z,80.88
2023-02-12T06:00:06.548Z,80.28
2023-02-12T06:02:42.863Z,80.71
2023-02-12T06:05:11.460Z,79.77
2023-02-12T06:07:40.033Z,79.44
2023-02-12T06:10:12.250Z,79.35
2023-02-12T06:12:40.781Z,79.50
2023-02-12T06:15:09.238Z,79.79
2023-02-12T06:17:37.614Z,79.96
2023-02-12T06:20:06.524Z,80.43
2023-02-12T06:22:34.869Z,81.21
2023-02-12T06:25:05.626Z,81.18
2023-02-12T06:27:33.752Z,81.41
2023-02-12T06:30:02.260Z,81.48
2023-02-12T06:32:30.936Z,81.60
2023-02-12T06:34:59.271Z,81.24
2023-02-12T06:37:30.495Z,81.48
2023-02-12T06:39:58.987Z,81.29
2023-02-12T06:42:27.384Z,80.96
2023-02-12T06:44:55.818Z,80.55
2023-02-12T06:47:27.788Z,80.04
2023-02-12T06:49:56.131Z,79.82
2023-02-12T06:52:30.787Z,80.05
2023-02-12T06:54:59.069Z,80.00
2023-02-12T06:57:29.868Z,80.07
2023-02-12T06:59:58.420Z,80.01
2023-02-12T07:02:26.871Z,79.11
2023-02-12T07:04:55.709Z,79.57
2023-02-12T07:07:24.248Z,79.19
2023-02-12T07:09:52.555Z,79.28
2023-02-12T07:12:20.841Z,79.76
2023-02-12T07:14:49.171Z,79.25
2023-02-12T07:17:17.341Z,78.99
2023-02-12T07:19:50.954Z,79.18
2023-02-12T07:22:19.132Z,78.92
2023-02-12T07:24:47.582Z,79.33
2023-02-12T07:27:16.018Z,79.34
2023-02-12T07:29:44.651Z,78.87
2023-02-12T07:32:13.420Z,79.17
2023-02-12T07:34:41.704Z,79.21
2023-02-12T07:37:10.405Z,79.06
2023-02-12T07:39:38.990Z,78.59
2023-02-12T07:42:09.058Z,78.85
2023-02-12T07:44:37.547Z,79.03
2023-02-12T07:47:06.194Z,78.98
2023-02-12T07:49:34.572Z,78.67
2023-02-12T07:52:03.408Z,78.78
2023-02-12T07:54:31.911Z,78.41
2023-02-12T07:57:00.715Z,78.29
2023-02-12T07:59:28.910Z,78.32
2023-02-12T08:01:58.478Z,78.30
2023-02-12T08:04:27.138Z,78.34
2023-02-12T08:06:56.636Z,78.88
2023-02-12T08:09:27.748Z,78.71
2023-02-12T08:11:55.931Z,78.45
2023-02-12T08:14:24.332Z,78.36
2023-02-12T08:16:53.096Z,78.35
2023-02-12T08:19:26.550Z,78.25
2023-02-12T08:21:56.706Z,78.02
2023-02-12T08:24:28.474Z,77.66
2023-02-12T08:26:56.893Z,76.88
2023-02-12T08:29:30.695Z,76.84
2023-02-12T08:32:00.419Z,76.52
2023-02-12T08:34:32.683Z,77.16
2023-02-12T08:37:01.835Z,77.27
2023-02-12T08:39:30.507Z,76.57
2023-02-12T08:42:00.396Z,76.68
2023-02-12T08:44:29.718Z,76.60
2023-02-12T08:46:58.643Z,76.66
2023-02-12T08:49:29.346Z,76.14
2023-02-12T08:51:59.444Z,74.79
2023-02-12T08:54:29.264Z,74.92
2023-02-12T08:57:00.293Z,74.89
2023-02-12T08:59:28.862Z,75.27
2023-02-12T09:02:00.671Z,75.33
2023-02-12T09:04:29.688Z,74.96
2023-02-12T09:07:00.549Z,75.43
2023-02-12T09:09:28.914Z,75.02
2023-02-12T09:11:59.590Z,75.23
2023-02-12T09:14:27.727Z,75.15
2023-02-12T09:16:57.448Z,74.44
2023-02-12T09:19:28.002Z,74.33
2023-02-12T09:21:57.125Z,74.32
2023-02-12T09:24:27.631Z,74.45
2023-02-12T09:26:56.844Z,74.72
2023-02-12T09:29:25.246Z,74.73
2023-02-12T09:31:53.895Z,74.27
2023-02-12T09:34:22.476Z,74.34
2023-02-12T09:36:51.054Z,74.72
2023-02-12T09:39:20.882Z,74.63
2023-02-12T09:42:36.683Z,74.37
2023-02-12T09:45:24.306Z,74.08
2023-02-12T09:48:22.780Z,73.95
2023-02-12T09:50:59.964Z,73.47
2023-02-12T09:53:35.102Z,72.55
2023-02-12T09:56:03.788Z,72.13
2023-02-12T09:58:50.334Z,73.05
2023-02-12T10:01:23.267Z,71.92
2023-02-12T10:03:52.946Z,72.47
2023-02-12T10:06:27.375Z,72.90
2023-02-12T10:08:58.624Z,72.59
2023-02-12T10:11:59.038Z,72.14
2023-02-12T10:14:41.931Z,72.26
2023-02-12T10:17:31.900Z,72.33
2023-02-12T10:20:28.570Z,72.48
2023-02-12T10:23:46.477Z,72.48
2023-02-12T10:26:26.092Z,72.14
2023-02-12T10:28:59.260Z,71.55
2023-02-12T10:31:45.044Z,72.02
2023-02-12T10:34:21.251Z,73.24
2023-02-12T10:36:58.214Z,72.93
2023-02-12T10:39:32.024Z,71.38
2023-02-12T10:42:21.584Z,71.45
2023-02-12T10:44:53.410Z,71.63
2023-02-12T10:47:24.131Z,71.27
2023-02-12T10:50:02.778Z,71.80
2023-02-12T10:52:55.375Z,71.98
2023-02-12T10:55:27.642Z,71.51
2023-02-12T10:58:03.126Z,71.16
2023-02-12T11:00:43.472Z,70.50
2023-02-12T11:03:23.334Z,70.77
2023-02-12T11:05:57.253Z,69.79
2023-02-12T11:08:36.241Z,69.82
2023-02-12T11:11:34.216Z,70.53
2023-02-12T11:14:16.669Z,71.43
2023-02-12T11:16:53.771Z,70.89
2023-02-12T11:19:28.024Z,70.79
2023-02-12T11:22:18.911Z,70.16
2023-02-12T11:25:02.116Z,70.11
2023-02-12T11:27:32.708Z,69.60
2023-02-12T11:30:33.016Z,69.41
2023-02-12T11:33:41.428Z,69.21
2023-02-12T11:36:43.994Z,67.37
2023-02-12T11:39:36.603Z,65.51
2023-02-12T11:42:29.213Z,68.53
2023-02-12T11:44:59.991Z,69.03
2023-02-12T11:47:36.294Z,67.75
2023-02-12T11:50:26.669Z,66.58
2023-02-12T11:53:04.710Z,67.26
2023-02-12T11:55:36.824Z,65.62
2023-02-12T11:58:26.812Z,65.73
2023-02-12T12:01:19.562Z,64.57
2023-02-12T12:04:14.215Z,65.74
2023-02-12T12:07:04.008Z,64.90
2023-02-12T12:09:49.668Z,64.61
2023-02-12T12:12:58.661Z,64.23
2023-02-12T12:15:57.385Z,63.98
2023-02-12T12:18:54.541Z,65.23
2023-02-12T12:21:34.665Z,65.80
2023-02-12T12:24:29.491Z,64.56
2023-02-12T12:27:24.596Z,63.31
2023-02-12T12:30:06.823Z,63.16
2023-02-12T12:32:38.979Z,64.64
2023-02-12T12:35:13.890Z,64.22
2023-02-12T12:37:55.022Z,64.78
2023-02-12T12:40:48.571Z,63.73
2023-02-12T12:43:30.351Z,61.04
2023-02-12T12:46:07.322Z,60.96
2023-02-12T12:49:28.684Z,63.62
2023-02-12T12:52:17.037Z,59.11
2023-02-12T12:55:21.574Z,58.03
2023-02-12T12:57:56.958Z,61.71
2023-02-12T13:00:52.793Z,58.11
2023-02-12T13:03:38.894Z,58.32
2023-02-12T13:06:28.240Z,57.65
2023-02-12T13:09:21.609Z,57.44
2023-02-12T13:12:15.426Z,55.30
2023-02-12T13:15:03.363Z,53.30
2023-02-12T13:17:54.834Z,57.61
2023-02-12T13:20:40.799Z,54.50
2023-02-12T13:23:23.163Z,53.64
2023-02-12T13:26:36.030Z,52.87
2023-02-12T13:29:19.614Z,52.99
2023-02-12T13:31:57.709Z,52.04
2023-02-12T13:34:29.850Z,50.86
2023-02-12T13:37:01.765Z,51.15
2023-02-12T13:39:35.675Z,50.12
2023-02-12T13:42:19.917Z,50.37
2023-02-12T13:45:00.905Z,49.40
2023-02-12T13:47:51.515Z,52.00
2023-02-12T13:50:47.382Z,49.63
2023-02-12T13:53:32.551Z,48.40
2023-02-12T13:56:16.184Z,52.02
2023-02-12T13:58:51.277Z,48.04
2023-02-12T14:01:46.795Z,48.75
2023-02-12T14:04:21.544Z,48.23
2023-02-12T14:07:15.588Z,48.15
2023-02-12T14:10:01.458Z,49.91
2023-02-12T14:12:35.248Z,52.34
2023-02-12T14:15:11.426Z,51.81
2023-02-12T14:17:52.153Z,51.32
2023-02-12T14:20:28.832Z,51.52
2023-02-12T14:23:01.767Z,51.72
2023-02-12T14:25:45.867Z,51.06
2023-02-12T14:28:56.349Z,51.06
2023-02-12T14:31:27.877Z,50.58
2023-02-12T14:34:06.126Z,51.46
2023-02-12T14:36:43.926Z,51.79
2023-02-12T14:39:45.685Z,53.32
2023-02-12T14:42:16.698Z,52.76
2023-02-12T14:44:48.073Z,52.90
2023-02-12T14:47:36.486Z,53.46
2023-02-12T14:50:23.043Z,53.91
2023-02-12T14:53:06.620Z,54.29
2023-02-12T14:55:36.065Z,54.74
2023-02-12T14:58:25.071Z,55.24
2023-02-12T15:00:56.829Z,55.60
2023-02-12T15:03:43.860Z,55.81
2023-02-12T15:06:34.321Z,56.40
2023-02-12T15:09:10.245Z,56.73
2023-02-12T15:12:00.501Z,57.06
2023-02-12T15:14:35.123Z,57.44
2023-02-12T15:17:22.364Z,57.67
2023-02-12T15:20:09.564Z,57.96
2023-02-12T15:22:42.097Z,58.13
2023-02-12T15:25:39.025Z,58.55
2023-02-12T15:28:21.045Z,59.17
2023-02-12T15:31:00.367Z,59.75
2023-02-12T15:33:35.272Z,60.08
2023-02-12T15:36:04.612Z,60.43
2023-02-12T15:38:41.668Z,60.68
2023-02-12T15:41:43.916Z,60.75
2023-02-12T15:44:30.918Z,61.20
2023-02-12T15:47:12.202Z,61.58
2023-02-12T15:49:42.170Z,61.78
2023-02-12T15:52:19.157Z,62.34
2023-02-12T15:54:48.661Z,63.39
2023-02-12T15:57:24.103Z,63.65
2023-02-12T16:00:10.222Z,64.50
2023-02-12T16:02:44.453Z,65.37
2023-02-12T16:05:16.999Z,65.57
2023-02-12T16:07:46.860Z,66.44
2023-02-12T16:10:20.851Z,66.51
2023-02-12T16:12:51.269Z,66.69
2023-02-12T16:15:34.524Z,67.09
2023-02-12T16:18:05.499Z,67.06
2023-02-12T16:20:35.037Z,67.71
2023-02-12T16:23:07.452Z,68.36
2023-02-12T16:25:35.812Z,68.67
2023-02-12T16:28:15.833Z,68.88
2023-02-12T16:30:48.508Z,69.37
2023-02-12T16:33:57.892Z,69.43
2023-02-12T16:36:26.067Z,69.97
2023-02-12T16:39:08.584Z,70.11
2023-02-12T16:41:57.600Z,70.29
2023-02-12T16:44:27.581Z,70.72
2023-02-12T16:46:59.069Z,71.09
2023-02-12T16:49:27.757Z,71.25
2023-02-12T16:52:20.877Z,71.78
2023-02-12T16:54:49.171Z,72.21
2023-02-12T16:57:17.432Z,73.21
2023-02-12T16:59:48.895Z,72.79
2023-02-12T17:02:17.423Z,69.14
2023-02-12T17:04:45.944Z,71.95
2023-02-12T17:07:28.548Z,72.66
2023-02-12T17:09:57.556Z,73.32
2023-02-12T17:12:26.670Z,72.35
2023-02-12T17:14:56.078Z,70.69
2023-02-12T17:17:24.316Z,73.47
2023-02-12T17:19:53.413Z,74.77
2023-02-12T17:22:24.591Z,75.81
2023-02-12T17:24:53.527Z,75.94
2023-02-12T17:27:22.122Z,76.06
2023-02-12T17:29:50.558Z,76.18
2023-02-12T17:32:21.538Z,75.85
2023-02-12T17:34:52.280Z,75.64
2023-02-12T17:37:22.446Z,76.07
2023-02-12T17:39:50.830Z,76.04
2023-02-12T17:42:21.440Z,76.56
2023-02-12T17:44:50.023Z,77.08
2023-02-12T17:47:18.248Z,76.78
2023-02-12T17:49:49.352Z,78.18
2023-02-12T17:52:17.740Z,77.49
2023-02-12T17:54:46.766Z,77.84
2023-02-12T17:57:15.119Z,77.00
2023-02-12T17:59:43.592Z,77.85
2023-02-12T18:02:12.494Z,76.60
2023-02-12T18:04:44.036Z,76.73
2023-02-12T18:07:12.650Z,76.80
2023-02-12T18:09:41.239Z,76.92
2023-02-12T18:12:09.895Z,75.72
2023-02-12T18:14:38.731Z,75.84
2023-02-12T18:17:09.482Z,76.29
2023-02-12T18:19:37.932Z,76.48
2023-02-12T18:22:06.235Z,76.65
2023-02-12T18:24:35.219Z,76.84
2023-02-12T18:27:03.531Z,75.76
2023-02-12T18:29:31.995Z,76.63
2023-02-12T18:32:00.866Z,76.97
2023-02-12T18:34:29.091Z,77.12
2023-02-12T18:36:57.872Z,77.44
2023-02-12T18:39:26.248Z,77.48
2023-02-12T18:41:54.413Z,77.92
2023-02-12T18:44:23.068Z,77.92
2023-02-12T18:46:51.494Z,77.84
2023-02-12T18:49:19.794Z,78.19
2023-02-12T18:51:48.026Z,78.50
2023-02-12T18:54:16.209Z,78.78
2023-02-12T18:56:48.340Z,79.00
2023-02-12T18:59:21.212Z,79.41
2023-02-12T19:01:51.215Z,79.15
2023-02-12T19:04:22.034Z,78.79
2023-02-12T19:06:54.713Z,78.30
2023-02-12T19:09:24.938Z,79.46
2023-02-12T19:11:55.970Z,79.54
2023-02-12T19:14:27.512Z,78.83
2023-02-12T19:16:56.018Z,78.48
2023-02-12T19:19:25.000Z,77.95
2023-02-12T19:21:53.521Z,79.35
2023-02-12T19:24:22.001Z,78.30
2023-02-12T19:26:54.005Z,78.49
2023-02-12T19:29:22.728Z,79.47
2023-02-12T19:31:51.141Z,80.73
2023-02-12T19:34:22.330Z,81.22
2023-02-12T19:36:51.105Z,80.89
2023-02-12T19:39:23.820Z,81.24
2023-02-12T19:41:52.406Z,81.55
2023-02-12T19:44:24.027Z,81.55
2023-02-12T19:46:53.413Z,82.05
2023-02-12T19:49:24.247Z,81.37
2023-02-12T19:51:52.909Z,80.82
2023-02-12T19:54:22.620Z,80.35
2023-02-12T19:56:52.914Z,80.65
2023-02-12T19:59:23.988Z,79.44
2023-02-12T20:01:52.881Z,80.03
2023-02-12T20:04:23.771Z,80.30
2023-02-12T20:06:52.844Z,80.33
2023-02-12T20:09:22.946Z,80.21
2023-02-12T20:11:51.945Z,80.76
2023-02-12T20:14:22.959Z,79.68
2023-02-12T20:16:54.790Z,80.39
2023-02-12T20:19:27.175Z,80.51
2023-02-12T20:21:57.674Z,80.03
2023-02-12T20:24:30.996Z,79.60
2023-02-12T20:27:01.375Z,79.64
2023-02-12T20:29:30.126Z,79.96
2023-02-12T20:31:58.640Z,80.06
2023-02-12T20:34:27.326Z,80.73
2023-02-12T20:36:55.958Z,80.82
2023-02-12T20:39:24.566Z,80.82
2023-02-12T20:41:53.108Z,81.17
2023-02-12T20:44:22.685Z,81.21
2023-02-12T20:46:56.455Z,81.18
2023-02-12T20:49:26.896Z,81.56
2023-02-12T20:51:55.538Z,81.92
2023-02-12T20:54:24.064Z,82.14
2023-02-12T20:56:52.443Z,81.81
2023-02-12T20:59:20.860Z,82.01
2023-02-12T21:01:49.278Z,82.20
2023-02-12T21:04:19.281Z,81.80
2023-02-12T21:06:48.698Z,82.23
2023-02-12T21:09:19.181Z,82.52
2023-02-12T21:11:48.452Z,82.39
2023-02-12T21:14:23.244Z,82.84
2023-02-12T21:16:55.014Z,82.37
2023-02-12T21:19:23.989Z,81.22
2023-02-12T21:21:52.977Z,81.52
2023-02-12T21:24:26.558Z,80.88
2023-02-12T21:26:56.764Z,79.57
2023-02-12T21:29:27.611Z,81.03
2023-02-12T21:31:56.176Z,80.15
2023-02-12T21:34:24.597Z,81.72
2023-02-12T21:36:55.455Z,80.27
2023-02-12T21:39:27.785Z,80.96
2023-02-12T21:42:03.197Z,81.64
2023-02-12T21:44:35.566Z,81.02
2023-02-12T21:47:04.826Z,80.75
2023-02-12T21:49:33.047Z,80.54
2023-02-12T21:52:03.637Z,81.77
2023-02-12T21:54:32.312Z,81.28
2023-02-12T21:57:00.848Z,81.01
2023-02-12T21:59:31.933Z,81.93
2023-02-12T22:02:00.919Z,83.13
2023-02-12T22:04:29.529Z,82.61
2023-02-12T22:06:59.786Z,82.33
2023-02-12T22:09:28.110Z,82.10
2023-02-12T22:11:56.399Z,83.89
2023-02-12T22:14:24.544Z,83.48
2023-02-12T22:16:52.938Z,83.00
2023-02-12T22:19:21.501Z,80.97
2023-02-12T22:21:53.653Z,82.20
2023-02-12T22:24:22.128Z,82.13
2023-02-12T22:26:50.511Z,82.24
2023-02-12T22:29:18.718Z,81.87
2023-02-12T22:31:47.747Z,80.32
2023-02-12T22:34:19.106Z,80.71
2023-02-12T22:36:48.340Z,81.43
2023-02-12T22:39:17.752Z,82.09
2023-02-12T22:41:49.386Z,83.08
2023-02-12T22:44:21.436Z,82.71
2023-02-12T22:46:50.365Z,82.70
2023-02-12T22:49:19.032Z,82.13
2023-02-12T22:51:47.659Z,82.27
2023-02-12T22:54:17.861Z,82.39
2023-02-12T22:56:50.308Z,82.22
2023-02-12T22:59:18.957Z,80.42
2023-02-12T23:01:47.201Z,79.93
2023-02-12T23:04:18.255Z,81.62
2023-02-12T23:06:47.211Z,82.55
2023-02-12T23:09:19.167Z,82.68
2023-02-12T23:11:51.717Z,83.10
2023-02-12T23:14:19.925Z,82.25
2023-02-12T23:16:48.687Z,82.90
2023-02-12T23:19:16.861Z,83.53
2023-02-12T23:21:45.123Z,84.20
2023-02-12T23:24:14.867Z,84.62
2023-02-12T23:26:43.516Z,84.68
2023-02-12T23:29:11.928Z,84.30
2023-02-12T23:31:40.196Z,83.72
2023-02-12T23:34:08.659Z,84.45
2023-02-12T23:36:36.992Z,83.98
2023-02-12T23:39:06.182Z,83.12
2023-02-12T23:41:35.332Z,83.17
2023-02-12T23:44:04.285Z,83.23
2023-02-12T23:46:32.368Z,84.08
2023-02-12T23:49:00.553Z,84.57
2023-02-12T23:51:29.270Z,84.68
2023-02-12T23:53:57.503Z,84.50
2023-02-12T23:56:26.241Z,84.96
2023-02-12T23:58:57.687Z,84.93
